sensor_id;sensor_type;location;lat;lon;timestamp;P1;durP1;ratioP1;P2;durP2;ratioP2
6185;SDS011;3126;52.738;8.316;2023-12-04T00:04:42;28.77;;;14.77;;
6185;SDS011;3126;52.738;8.316;2023-12-04T00:09:43;32.30;;;15.23;;
6185;SDS011;3126;52.738;8.316;2023-12-04T00:14:44;31.00;;;15.30;;
6185;SDS011;3126;52.738;8.316;2023-12-04T00:19:45;30.73;;;15.48;;
6185;SDS011;3126;52.738;8.316;2023-12-04T00:24:46;30.48;;;16.88;;
6185;SDS011;3126;52.738;8.316;2023-12-04T00:29:47;34.25;;;16.23;;
6185;SDS011;3126;52.738;8.316;2023-12-04T00:34:48;31.23;;;14.70;;
6185;SDS011;3126;52.738;8.316;2023-12-04T00:39:49;33.10;;;16.67;;
6185;SDS011;3126;52.738;8.316;2023-12-04T00:44:50;31.88;;;15.68;;
6185;SDS011;3126;52.738;8.316;2023-12-04T00:49:51;32.78;;;15.07;;
6185;SDS011;3126;52.738;8.316;2023-12-04T00:54:52;30.77;;;15.48;;
6185;SDS011;3126;52.738;8.316;2023-12-04T00:59:53;32.75;;;15.40;;
6185;SDS011;3126;52.738;8.316;2023-12-04T01:04:54;32.42;;;15.55;;
6185;SDS011;3126;52.738;8.316;2023-12-04T01:09:55;29.08;;;14.23;;
6185;SDS011;3126;52.738;8.316;2023-12-04T01:14:56;28.38;;;13.77;;
6185;SDS011;3126;52.738;8.316;2023-12-04T01:19:57;31.50;;;14.90;;
6185;SDS011;3126;52.738;8.316;2023-12-04T01:24:58;27.10;;;14.20;;
6185;SDS011;3126;52.738;8.316;2023-12-04T01:29:59;27.13;;;14.38;;
6185;SDS011;3126;52.738;8.316;2023-12-04T01:35:01;31.55;;;14.45;;
6185;SDS011;3126;52.738;8.316;2023-12-04T01:40:02;26.13;;;14.70;;
6185;SDS011;3126;52.738;8.316;2023-12-04T01:45:06;27.50;;;14.88;;
6185;SDS011;3126;52.738;8.316;2023-12-04T01:50:08;30.67;;;14.35;;
6185;SDS011;3126;52.738;8.316;2023-12-04T01:55:09;32.35;;;14.60;;
6185;SDS011;3126;52.738;8.316;2023-12-04T02:00:11;33.50;;;15.07;;
6185;SDS011;3126;52.738;8.316;2023-12-04T02:05:12;29.98;;;13.77;;
6185;SDS011;3126;52.738;8.316;2023-12-04T02:10:13;29.60;;;13.48;;
6185;SDS011;3126;52.738;8.316;2023-12-04T02:15:14;25.23;;;13.93;;
6185;SDS011;3126;52.738;8.316;2023-12-04T02:20:16;27.65;;;13.07;;
6185;SDS011;3126;52.738;8.316;2023-12-04T02:25:17;33.80;;;14.73;;
6185;SDS011;3126;52.738;8.316;2023-12-04T02:30:19;32.55;;;15.02;;
6185;SDS011;3126;52.738;8.316;2023-12-04T02:35:22;28.10;;;13.18;;
6185;SDS011;3126;52.738;8.316;2023-12-04T02:40:24;28.05;;;13.82;;
6185;SDS011;3126;52.738;8.316;2023-12-04T02:45:26;24.38;;;13.15;;
6185;SDS011;3126;52.738;8.316;2023-12-04T02:50:27;27.88;;;13.55;;
6185;SDS011;3126;52.738;8.316;2023-12-04T02:55:28;25.60;;;12.90;;
6185;SDS011;3126;52.738;8.316;2023-12-04T03:00:29;30.17;;;14.52;;
6185;SDS011;3126;52.738;8.316;2023-12-04T03:05:30;26.90;;;13.20;;
6185;SDS011;3126;52.738;8.316;2023-12-04T03:10:31;26.55;;;13.95;;
6185;SDS011;3126;52.738;8.316;2023-12-04T03:15:32;28.60;;;13.23;;
6185;SDS011;3126;52.738;8.316;2023-12-04T03:20:33;24.95;;;12.70;;
6185;SDS011;3126;52.738;8.316;2023-12-04T03:25:34;27.17;;;13.02;;
6185;SDS011;3126;52.738;8.316;2023-12-04T03:30:35;27.50;;;13.90;;
6185;SDS011;3126;52.738;8.316;2023-12-04T03:35:36;27.98;;;12.90;;
6185;SDS011;3126;52.738;8.316;2023-12-04T03:40:37;24.92;;;12.98;;
6185;SDS011;3126;52.738;8.316;2023-12-04T03:45:38;25.42;;;13.05;;
6185;SDS011;3126;52.738;8.316;2023-12-04T03:50:39;21.75;;;12.90;;
6185;SDS011;3126;52.738;8.316;2023-12-04T03:55:40;25.30;;;13.25;;
6185;SDS011;3126;52.738;8.316;2023-12-04T04:00:41;26.17;;;14.10;;
6185;SDS011;3126;52.738;8.316;2023-12-04T04:05:43;25.75;;;12.90;;
6185;SDS011;3126;52.738;8.316;2023-12-04T04:10:44;27.02;;;14.20;;
6185;SDS011;3126;52.738;8.316;2023-12-04T04:15:45;28.20;;;14.02;;
6185;SDS011;3126;52.738;8.316;2023-12-04T04:20:46;26.23;;;13.48;;
6185;SDS011;3126;52.738;8.316;2023-12-04T04:25:47;24.52;;;12.80;;
6185;SDS011;3126;52.738;8.316;2023-12-04T04:30:48;26.30;;;12.55;;
6185;SDS011;3126;52.738;8.316;2023-12-04T04:35:49;25.73;;;13.32;;
6185;SDS011;3126;52.738;8.316;2023-12-04T04:40:50;25.33;;;13.77;;
6185;SDS011;3126;52.738;8.316;2023-12-04T04:45:52;26.30;;;13.73;;
6185;SDS011;3126;52.738;8.316;2023-12-04T04:50:53;26.92;;;13.07;;
6185;SDS011;3126;52.738;8.316;2023-12-04T04:55:54;25.40;;;14.05;;
6185;SDS011;3126;52.738;8.316;2023-12-04T05:00:55;24.13;;;12.57;;
6185;SDS011;3126;52.738;8.316;2023-12-04T05:05:56;23.00;;;14.02;;
6185;SDS011;3126;52.738;8.316;2023-12-04T05:10:57;26.98;;;12.65;;
6185;SDS011;3126;52.738;8.316;2023-12-04T05:15:58;29.08;;;13.52;;
6185;SDS011;3126;52.738;8.316;2023-12-04T05:20:59;27.92;;;13.40;;
6185;SDS011;3126;52.738;8.316;2023-12-04T05:26:00;22.83;;;13.65;;
6185;SDS011;3126;52.738;8.316;2023-12-04T05:31:01;26.55;;;13.13;;
6185;SDS011;3126;52.738;8.316;2023-12-04T05:36:02;26.23;;;13.95;;
6185;SDS011;3126;52.738;8.316;2023-12-04T05:41:03;26.27;;;13.82;;
6185;SDS011;3126;52.738;8.316;2023-12-04T05:46:04;23.35;;;12.02;;
6185;SDS011;3126;52.738;8.316;2023-12-04T05:51:05;21.77;;;12.18;;
6185;SDS011;3126;52.738;8.316;2023-12-04T05:56:06;27.73;;;11.90;;
6185;SDS011;3126;52.738;8.316;2023-12-04T06:01:08;26.70;;;12.30;;
6185;SDS011;3126;52.738;8.316;2023-12-04T06:06:09;23.00;;;12.35;;
6185;SDS011;3126;52.738;8.316;2023-12-04T06:11:10;21.17;;;12.15;;
6185;SDS011;3126;52.738;8.316;2023-12-04T06:16:11;21.30;;;13.07;;
6185;SDS011;3126;52.738;8.316;2023-12-04T06:21:12;23.42;;;12.23;;
6185;SDS011;3126;52.738;8.316;2023-12-04T06:26:14;23.42;;;12.18;;
6185;SDS011;3126;52.738;8.316;2023-12-04T06:31:15;23.88;;;11.63;;
6185;SDS011;3126;52.738;8.316;2023-12-04T06:36:16;20.58;;;12.30;;
6185;SDS011;3126;52.738;8.316;2023-12-04T06:41:18;23.98;;;12.45;;
6185;SDS011;3126;52.738;8.316;2023-12-04T06:46:21;20.38;;;11.48;;
6185;SDS011;3126;52.738;8.316;2023-12-04T06:51:22;23.05;;;12.18;;
6185;SDS011;3126;52.738;8.316;2023-12-04T06:56:23;17.35;;;10.60;;
6185;SDS011;3126;52.738;8.316;2023-12-04T07:01:24;19.02;;;11.50;;
6185;SDS011;3126;52.738;8.316;2023-12-04T07:06:25;24.05;;;12.57;;
6185;SDS011;3126;52.738;8.316;2023-12-04T07:11:26;20.67;;;11.38;;
6185;SDS011;3126;52.738;8.316;2023-12-04T07:16:27;21.63;;;11.82;;
6185;SDS011;3126;52.738;8.316;2023-12-04T07:21:28;21.42;;;11.70;;
6185;SDS011;3126;52.738;8.316;2023-12-04T07:26:30;19.38;;;10.30;;
6185;SDS011;3126;52.738;8.316;2023-12-04T07:31:32;18.20;;;10.52;;
6185;SDS011;3126;52.738;8.316;2023-12-04T07:36:32;17.52;;;10.50;;
6185;SDS011;3126;52.738;8.316;2023-12-04T07:41:34;18.48;;;10.68;;
6185;SDS011;3126;52.738;8.316;2023-12-04T07:46:34;16.67;;;9.95;;
6185;SDS011;3126;52.738;8.316;2023-12-04T07:51:36;17.40;;;10.00;;
6185;SDS011;3126;52.738;8.316;2023-12-04T07:56:37;16.88;;;10.35;;
6185;SDS011;3126;52.738;8.316;2023-12-04T08:01:38;19.65;;;9.90;;
6185;SDS011;3126;52.738;8.316;2023-12-04T08:06:39;18.40;;;9.98;;
6185;SDS011;3126;52.738;8.316;2023-12-04T08:11:41;16.80;;;10.10;;
6185;SDS011;3126;52.738;8.316;2023-12-04T08:16:42;19.50;;;10.57;;
6185;SDS011;3126;52.738;8.316;2023-12-04T08:21:42;19.42;;;9.70;;
6185;SDS011;3126;52.738;8.316;2023-12-04T08:26:44;17.85;;;9.32;;
6185;SDS011;3126;52.738;8.316;2023-12-04T08:31:45;17.25;;;9.63;;
6185;SDS011;3126;52.738;8.316;2023-12-04T08:36:46;13.30;;;8.75;;
6185;SDS011;3126;52.738;8.316;2023-12-04T08:41:47;16.98;;;9.20;;
6185;SDS011;3126;52.738;8.316;2023-12-04T08:46:48;13.40;;;7.95;;
6185;SDS011;3126;52.738;8.316;2023-12-04T08:51:51;17.90;;;10.30;;
6185;SDS011;3126;52.738;8.316;2023-12-04T08:56:52;17.30;;;8.90;;
6185;SDS011;3126;52.738;8.316;2023-12-04T09:01:54;13.23;;;7.80;;
6185;SDS011;3126;52.738;8.316;2023-12-04T09:06:55;13.88;;;8.82;;
6185;SDS011;3126;52.738;8.316;2023-12-04T09:11:56;16.88;;;9.02;;
6185;SDS011;3126;52.738;8.316;2023-12-04T09:16:57;13.55;;;8.02;;
6185;SDS011;3126;52.738;8.316;2023-12-04T09:21:58;15.07;;;8.45;;
6185;SDS011;3126;52.738;8.316;2023-12-04T09:26:59;20.17;;;9.90;;
6185;SDS011;3126;52.738;8.316;2023-12-04T09:32:00;14.38;;;8.88;;
6185;SDS011;3126;52.738;8.316;2023-12-04T09:37:01;15.98;;;9.07;;
6185;SDS011;3126;52.738;8.316;2023-12-04T09:42:02;16.73;;;9.32;;
6185;SDS011;3126;52.738;8.316;2023-12-04T09:47:03;16.45;;;9.65;;
6185;SDS011;3126;52.738;8.316;2023-12-04T09:52:05;17.33;;;9.60;;
6185;SDS011;3126;52.738;8.316;2023-12-04T09:57:07;14.63;;;9.32;;
6185;SDS011;3126;52.738;8.316;2023-12-04T10:02:08;14.05;;;8.45;;
6185;SDS011;3126;52.738;8.316;2023-12-04T10:07:10;15.82;;;9.55;;
6185;SDS011;3126;52.738;8.316;2023-12-04T10:12:11;11.45;;;8.20;;
6185;SDS011;3126;52.738;8.316;2023-12-04T10:17:15;10.77;;;7.70;;
6185;SDS011;3126;52.738;8.316;2023-12-04T10:22:17;15.73;;;8.38;;
6185;SDS011;3126;52.738;8.316;2023-12-04T10:27:18;12.35;;;7.97;;
6185;SDS011;3126;52.738;8.316;2023-12-04T10:32:22;16.38;;;8.25;;
6185;SDS011;3126;52.738;8.316;2023-12-04T10:37:22;14.10;;;8.70;;
6185;SDS011;3126;52.738;8.316;2023-12-04T10:42:28;13.75;;;8.35;;
6185;SDS011;3126;52.738;8.316;2023-12-04T10:47:32;14.30;;;7.82;;
6185;SDS011;3126;52.738;8.316;2023-12-04T10:52:34;12.25;;;7.63;;
6185;SDS011;3126;52.738;8.316;2023-12-04T10:57:40;14.88;;;9.18;;
6185;SDS011;3126;52.738;8.316;2023-12-04T11:02:42;11.98;;;7.60;;
6185;SDS011;3126;52.738;8.316;2023-12-04T11:07:48;11.52;;;7.75;;
6185;SDS011;3126;52.738;8.316;2023-12-04T11:13:11;13.82;;;8.90;;
6185;SDS011;3126;52.738;8.316;2023-12-04T11:18:14;12.52;;;7.93;;
6185;SDS011;3126;52.738;8.316;2023-12-04T11:23:15;12.48;;;7.70;;
6185;SDS011;3126;52.738;8.316;2023-12-04T11:28:17;16.17;;;8.00;;
6185;SDS011;3126;52.738;8.316;2023-12-04T11:33:18;12.30;;;7.80;;
6185;SDS011;3126;52.738;8.316;2023-12-04T11:38:19;14.85;;;8.65;;
6185;SDS011;3126;52.738;8.316;2023-12-04T11:43:24;11.98;;;7.90;;
6185;SDS011;3126;52.738;8.316;2023-12-04T11:48:25;11.07;;;8.30;;
6185;SDS011;3126;52.738;8.316;2023-12-04T11:53:27;13.13;;;8.25;;
6185;SDS011;3126;52.738;8.316;2023-12-04T11:58:28;11.63;;;7.70;;
6185;SDS011;3126;52.738;8.316;2023-12-04T12:03:29;13.95;;;8.38;;
6185;SDS011;3126;52.738;8.316;2023-12-04T12:08:29;11.82;;;8.02;;
6185;SDS011;3126;52.738;8.316;2023-12-04T12:13:31;11.82;;;7.50;;
6185;SDS011;3126;52.738;8.316;2023-12-04T12:18:34;11.80;;;7.30;;
6185;SDS011;3126;52.738;8.316;2023-12-04T12:23:35;11.68;;;7.03;;
6185;SDS011;3126;52.738;8.316;2023-12-04T12:28:36;10.55;;;6.93;;
6185;SDS011;3126;52.738;8.316;2023-12-04T12:33:37;12.25;;;7.43;;
6185;SDS011;3126;52.738;8.316;2023-12-04T12:38:38;10.48;;;7.18;;
6185;SDS011;3126;52.738;8.316;2023-12-04T12:43:39;10.02;;;6.07;;
6185;SDS011;3126;52.738;8.316;2023-12-04T12:48:41;10.38;;;7.03;;
6185;SDS011;3126;52.738;8.316;2023-12-04T12:53:44;10.38;;;7.20;;
6185;SDS011;3126;52.738;8.316;2023-12-04T12:58:45;10.18;;;6.63;;
6185;SDS011;3126;52.738;8.316;2023-12-04T13:03:46;11.05;;;8.02;;
6185;SDS011;3126;52.738;8.316;2023-12-04T13:08:47;10.20;;;7.22;;
6185;SDS011;3126;52.738;8.316;2023-12-04T13:13:48;11.15;;;7.50;;
6185;SDS011;3126;52.738;8.316;2023-12-04T13:18:49;10.40;;;6.75;;
6185;SDS011;3126;52.738;8.316;2023-12-04T13:23:51;9.88;;;7.68;;
6185;SDS011;3126;52.738;8.316;2023-12-04T13:28:52;8.43;;;5.88;;
6185;SDS011;3126;52.738;8.316;2023-12-04T13:33:53;10.63;;;7.00;;
6185;SDS011;3126;52.738;8.316;2023-12-04T13:38:54;11.23;;;6.70;;
6185;SDS011;3126;52.738;8.316;2023-12-04T13:43:55;7.32;;;5.75;;
6185;SDS011;3126;52.738;8.316;2023-12-04T13:48:56;10.90;;;6.95;;
6185;SDS011;3126;52.738;8.316;2023-12-04T13:53:57;9.88;;;6.90;;
6185;SDS011;3126;52.738;8.316;2023-12-04T13:59:09;10.40;;;7.50;;
6185;SDS011;3126;52.738;8.316;2023-12-04T14:04:18;10.98;;;8.02;;
6185;SDS011;3126;52.738;8.316;2023-12-04T14:09:19;12.65;;;7.43;;
6185;SDS011;3126;52.738;8.316;2023-12-04T14:14:20;9.77;;;6.72;;
6185;SDS011;3126;52.738;8.316;2023-12-04T14:19:21;10.80;;;7.18;;
6185;SDS011;3126;52.738;8.316;2023-12-04T14:24:23;11.50;;;7.35;;
6185;SDS011;3126;52.738;8.316;2023-12-04T14:29:24;11.18;;;7.03;;
6185;SDS011;3126;52.738;8.316;2023-12-04T14:34:25;10.68;;;7.25;;
6185;SDS011;3126;52.738;8.316;2023-12-04T14:39:26;10.57;;;6.75;;
6185;SDS011;3126;52.738;8.316;2023-12-04T14:44:27;11.25;;;7.10;;
6185;SDS011;3126;52.738;8.316;2023-12-04T14:49:28;10.88;;;7.93;;
6185;SDS011;3126;52.738;8.316;2023-12-04T14:54:29;9.10;;;6.60;;
6185;SDS011;3126;52.738;8.316;2023-12-04T14:59:48;9.07;;;6.50;;
6185;SDS011;3126;52.738;8.316;2023-12-04T15:04:55;8.35;;;6.32;;
6185;SDS011;3126;52.738;8.316;2023-12-04T15:10:08;9.55;;;6.15;;
6185;SDS011;3126;52.738;8.316;2023-12-04T15:15:39;14.40;;;6.65;;
6185;SDS011;3126;52.738;8.316;2023-12-04T15:21:00;10.98;;;6.57;;
6185;SDS011;3126;52.738;8.316;2023-12-04T15:26:02;9.13;;;6.20;;
6185;SDS011;3126;52.738;8.316;2023-12-04T15:31:03;11.68;;;7.38;;
6185;SDS011;3126;52.738;8.316;2023-12-04T15:36:05;9.20;;;6.53;;
6185;SDS011;3126;52.738;8.316;2023-12-04T15:41:08;7.43;;;5.45;;
6185;SDS011;3126;52.738;8.316;2023-12-04T15:46:10;7.68;;;6.82;;
6185;SDS011;3126;52.738;8.316;2023-12-04T15:51:11;11.65;;;7.25;;
6185;SDS011;3126;52.738;8.316;2023-12-04T15:56:12;10.25;;;6.63;;
6185;SDS011;3126;52.738;8.316;2023-12-04T16:01:13;7.85;;;5.18;;
6185;SDS011;3126;52.738;8.316;2023-12-04T16:06:14;8.05;;;5.90;;
6185;SDS011;3126;52.738;8.316;2023-12-04T16:11:18;10.60;;;7.07;;
6185;SDS011;3126;52.738;8.316;2023-12-04T16:16:19;10.15;;;6.82;;
6185;SDS011;3126;52.738;8.316;2023-12-04T16:21:20;11.25;;;8.95;;
6185;SDS011;3126;52.738;8.316;2023-12-04T16:26:22;10.05;;;6.72;;
6185;SDS011;3126;52.738;8.316;2023-12-04T16:31:23;9.60;;;6.65;;
6185;SDS011;3126;52.738;8.316;2023-12-04T16:36:24;12.05;;;7.55;;
6185;SDS011;3126;52.738;8.316;2023-12-04T16:41:25;11.00;;;6.82;;
6185;SDS011;3126;52.738;8.316;2023-12-04T16:46:25;10.93;;;6.07;;
6185;SDS011;3126;52.738;8.316;2023-12-04T16:51:28;10.88;;;7.18;;
6185;SDS011;3126;52.738;8.316;2023-12-04T16:56:29;13.52;;;8.73;;
6185;SDS011;3126;52.738;8.316;2023-12-04T17:01:30;12.25;;;7.75;;
6185;SDS011;3126;52.738;8.316;2023-12-04T17:06:31;10.27;;;6.68;;
6185;SDS011;3126;52.738;8.316;2023-12-04T17:11:33;9.95;;;7.00;;
6185;SDS011;3126;52.738;8.316;2023-12-04T17:16:34;8.23;;;7.30;;
6185;SDS011;3126;52.738;8.316;2023-12-04T17:21:35;11.55;;;7.68;;
6185;SDS011;3126;52.738;8.316;2023-12-04T17:26:36;13.98;;;8.45;;
6185;SDS011;3126;52.738;8.316;2023-12-04T17:31:37;13.75;;;8.40;;
6185;SDS011;3126;52.738;8.316;2023-12-04T17:36:39;9.40;;;6.45;;
6185;SDS011;3126;52.738;8.316;2023-12-04T17:41:41;12.10;;;7.20;;
6185;SDS011;3126;52.738;8.316;2023-12-04T17:46:42;10.32;;;7.05;;
6185;SDS011;3126;52.738;8.316;2023-12-04T17:51:43;11.38;;;7.57;;
6185;SDS011;3126;52.738;8.316;2023-12-04T17:56:44;12.43;;;7.82;;
6185;SDS011;3126;52.738;8.316;2023-12-04T18:01:45;11.07;;;7.75;;
6185;SDS011;3126;52.738;8.316;2023-12-04T18:06:46;12.77;;;7.75;;
6185;SDS011;3126;52.738;8.316;2023-12-04T18:11:47;12.90;;;8.05;;
6185;SDS011;3126;52.738;8.316;2023-12-04T18:16:48;11.00;;;7.47;;
6185;SDS011;3126;52.738;8.316;2023-12-04T18:21:49;12.95;;;7.72;;
6185;SDS011;3126;52.738;8.316;2023-12-04T18:26:50;10.30;;;7.50;;
6185;SDS011;3126;52.738;8.316;2023-12-04T18:31:51;13.13;;;7.10;;
6185;SDS011;3126;52.738;8.316;2023-12-04T18:36:53;10.30;;;6.38;;
6185;SDS011;3126;52.738;8.316;2023-12-04T18:41:58;15.45;;;9.60;;
6185;SDS011;3126;52.738;8.316;2023-12-04T18:46:59;10.40;;;7.07;;
6185;SDS011;3126;52.738;8.316;2023-12-04T18:52:02;11.27;;;6.47;;
6185;SDS011;3126;52.738;8.316;2023-12-04T18:57:03;13.48;;;7.05;;
6185;SDS011;3126;52.738;8.316;2023-12-04T19:02:04;13.48;;;7.40;;
6185;SDS011;3126;52.738;8.316;2023-12-04T19:07:05;9.27;;;5.95;;
6185;SDS011;3126;52.738;8.316;2023-12-04T19:12:06;9.63;;;6.35;;
6185;SDS011;3126;52.738;8.316;2023-12-04T19:17:07;13.68;;;9.18;;
6185;SDS011;3126;52.738;8.316;2023-12-04T19:22:08;8.52;;;6.47;;
6185;SDS011;3126;52.738;8.316;2023-12-04T19:27:09;12.45;;;7.63;;
6185;SDS011;3126;52.738;8.316;2023-12-04T19:32:10;10.65;;;7.13;;
6185;SDS011;3126;52.738;8.316;2023-12-04T19:37:11;9.18;;;5.70;;
6185;SDS011;3126;52.738;8.316;2023-12-04T19:42:12;10.63;;;6.78;;
6185;SDS011;3126;52.738;8.316;2023-12-04T19:47:13;9.48;;;7.28;;
6185;SDS011;3126;52.738;8.316;2023-12-04T19:52:15;10.88;;;7.20;;
6185;SDS011;3126;52.738;8.316;2023-12-04T19:57:16;8.45;;;5.47;;
6185;SDS011;3126;52.738;8.316;2023-12-04T20:02:19;10.25;;;6.60;;
6185;SDS011;3126;52.738;8.316;2023-12-04T20:07:20;10.75;;;6.55;;
6185;SDS011;3126;52.738;8.316;2023-12-04T20:12:21;8.70;;;6.22;;
6185;SDS011;3126;52.738;8.316;2023-12-04T20:17:25;9.48;;;6.80;;
6185;SDS011;3126;52.738;8.316;2023-12-04T20:22:26;9.73;;;6.18;;
6185;SDS011;3126;52.738;8.316;2023-12-04T20:27:28;7.95;;;6.28;;
6185;SDS011;3126;52.738;8.316;2023-12-04T20:32:29;10.50;;;6.85;;
6185;SDS011;3126;52.738;8.316;2023-12-04T20:37:30;8.43;;;5.50;;
6185;SDS011;3126;52.738;8.316;2023-12-04T20:42:31;10.63;;;6.47;;
6185;SDS011;3126;52.738;8.316;2023-12-04T20:47:32;8.77;;;5.45;;
6185;SDS011;3126;52.738;8.316;2023-12-04T20:52:33;11.25;;;6.45;;
6185;SDS011;3126;52.738;8.316;2023-12-04T20:57:34;7.63;;;6.10;;
6185;SDS011;3126;52.738;8.316;2023-12-04T21:02:35;7.80;;;5.90;;
6185;SDS011;3126;52.738;8.316;2023-12-04T21:07:36;9.23;;;6.35;;
6185;SDS011;3126;52.738;8.316;2023-12-04T21:12:37;8.40;;;5.82;;
6185;SDS011;3126;52.738;8.316;2023-12-04T21:17:38;10.85;;;6.63;;
6185;SDS011;3126;52.738;8.316;2023-12-04T21:22:39;9.90;;;6.85;;
6185;SDS011;3126;52.738;8.316;2023-12-04T21:27:41;9.35;;;6.95;;
6185;SDS011;3126;52.738;8.316;2023-12-04T21:32:43;9.75;;;6.18;;
6185;SDS011;3126;52.738;8.316;2023-12-04T21:37:44;10.93;;;6.28;;
6185;SDS011;3126;52.738;8.316;2023-12-04T21:42:45;12.55;;;7.68;;
6185;SDS011;3126;52.738;8.316;2023-12-04T21:47:46;12.40;;;6.82;;
6185;SDS011;3126;52.738;8.316;2023-12-04T21:52:47;13.68;;;8.63;;
6185;SDS011;3126;52.738;8.316;2023-12-04T21:57:48;14.30;;;8.75;;
6185;SDS011;3126;52.738;8.316;2023-12-04T22:02:49;15.25;;;9.38;;
6185;SDS011;3126;52.738;8.316;2023-12-04T22:07:50;13.68;;;9.32;;
6185;SDS011;3126;52.738;8.316;2023-12-04T22:12:51;12.75;;;8.88;;
6185;SDS011;3126;52.738;8.316;2023-12-04T22:17:53;13.07;;;9.18;;
6185;SDS011;3126;52.738;8.316;2023-12-04T22:22:54;15.68;;;8.45;;
6185;SDS011;3126;52.738;8.316;2023-12-04T22:27:55;15.40;;;9.45;;
6185;SDS011;3126;52.738;8.316;2023-12-04T22:32:56;12.88;;;8.52;;
6185;SDS011;3126;52.738;8.316;2023-12-04T22:37:57;13.40;;;8.75;;
6185;SDS011;3126;52.738;8.316;2023-12-04T22:43:00;16.08;;;8.95;;
6185;SDS011;3126;52.738;8.316;2023-12-04T22:48:01;14.68;;;9.43;;
6185;SDS011;3126;52.738;8.316;2023-12-04T22:53:02;15.68;;;10.35;;
6185;SDS011;3126;52.738;8.316;2023-12-04T22:58:03;15.05;;;10.15;;
6185;SDS011;3126;52.738;8.316;2023-12-04T23:03:04;15.02;;;9.70;;
6185;SDS011;3126;52.738;8.316;2023-12-04T23:08:05;14.68;;;10.07;;
6185;SDS011;3126;52.738;8.316;2023-12-04T23:13:06;18.70;;;10.13;;
6185;SDS011;3126;52.738;8.316;2023-12-04T23:18:07;15.30;;;9.90;;
6185;SDS011;3126;52.738;8.316;2023-12-04T23:23:09;14.70;;;9.98;;
6185;SDS011;3126;52.738;8.316;2023-12-04T23:28:10;14.70;;;9.10;;
6185;SDS011;3126;52.738;8.316;2023-12-04T23:33:11;12.75;;;8.75;;
6185;SDS011;3126;52.738;8.316;2023-12-04T23:38:12;13.35;;;9.65;;
6185;SDS011;3126;52.738;8.316;2023-12-04T23:43:13;16.20;;;9.35;;
6185;SDS011;3126;52.738;8.316;2023-12-04T23:48:14;12.70;;;10.07;;
6185;SDS011;3126;52.738;8.316;2023-12-04T23:53:15;12.35;;;9.50;;
6185;SDS011;3126;52.738;8.316;2023-12-04T23:58:16;16.10;;;8.45;;
